Terminal Aerodrome Forecast
Issued by NWS

Home | Current Version | Previous Version | Text Only | Print | Product List | Glossary On
Versions: 1 2 3 4 5 6 7 8 9 10 11 12 13 14 15 16
000
FTUS45 KABQ 040521
TAFTCC
TAF
KTCC 040521Z 0406/0506 06011KT P6SM VCSH SCT070 BKN150
      TEMPO 0406/0408 VRB15G35KT -TSRA BKN060CB
     FM040800 VRB06KT P6SM BKN100
     FM041800 22015G25KT P6SM FEW090
     FM042300 21015G25KT P6SM SCT090 BKN200
     FM050200 20009KT P6SM SCT090 BKN200=

USA.gov is the U.S. government's official web portal to all federal, state and local government web resources and services.